Time;durP1;ratioP1;P1;durP2;ratioP2;P2;SDS_P1;SDS_P2;PMS_P1;PMS_P2;Temp;Humidity;BMP_temperature;BMP_pressure;BME280_temperature;BME280_humidity;BME280_pressure;Samples;Min_cycle;Max_cycle;Signal;HPM_P1;HPM_P2
2022/03/30 00:01:16;;;;;;;65.07;36.20;;;5.40;99.90;;;;;;5099050;28;20637;-82
2022/03/30 00:04:05;;;;;;;69.50;36.53;;;5.40;99.90;;;;;;5094096;27;20328;-69
2022/03/30 00:06:54;;;;;;;69.60;35.83;;;5.50;99.90;;;;;;5096120;27;20301;-81
2022/03/30 00:09:43;;;;;;;70.27;36.93;;;5.60;99.90;;;;;;5076323;28;20218;-77
2022/03/30 00:12:33;;;;;;;70.30;36.97;;;5.60;99.90;;;;;;5085993;27;25627;-77
2022/03/30 00:15:22;;;;;;;67.50;37.20;;;5.70;99.90;;;;;;5085386;28;20712;-82
2022/03/30 00:18:12;;;;;;;72.70;38.00;;;5.60;99.90;;;;;;5099364;28;20223;-78
2022/03/30 00:21:01;;;;;;;75.10;38.07;;;5.50;99.90;;;;;;5099018;28;20232;-77
2022/03/30 00:23:50;;;;;;;69.10;36.90;;;5.60;99.90;;;;;;5096487;27;20617;-78
2022/03/30 00:26:39;;;;;;;71.27;38.23;;;5.60;99.90;;;;;;5078636;28;20883;-79
2022/03/30 00:29:28;;;;;;;69.67;38.37;;;5.60;99.90;;;;;;5084022;28;20226;-77
2022/03/30 00:32:17;;;;;;;71.13;37.63;;;5.60;99.90;;;;;;5077316;28;20249;-76
2022/03/30 00:35:08;;;;;;;74.50;38.70;;;5.50;99.90;;;;;;5087500;28;20778;-76
2022/03/30 00:37:57;;;;;;;77.97;38.07;;;5.40;99.90;;;;;;5100515;27;20305;-75
2022/03/30 00:40:46;;;;;;;67.60;36.93;;;5.30;99.90;;;;;;5095396;28;20252;-74
2022/03/30 00:43:35;;;;;;;70.47;38.40;;;5.40;99.90;;;;;;5100273;27;20244;-77
2022/03/30 00:46:24;;;;;;;75.73;38.47;;;5.40;99.90;;;;;;5095928;28;20221;-80
2022/03/30 00:49:13;;;;;;;71.13;37.37;;;5.50;99.90;;;;;;5084859;28;20235;-79
2022/03/30 00:52:03;;;;;;;68.90;37.07;;;5.50;99.90;;;;;;5086614;28;20237;-80
2022/03/30 00:54:52;;;;;;;71.03;36.40;;;5.50;99.90;;;;;;5101912;27;20261;-74
2022/03/30 00:57:42;;;;;;;77.97;38.37;;;5.50;99.90;;;;;;5098501;28;20222;-77
2022/03/30 01:00:31;;;;;;;66.93;37.00;;;5.40;99.90;;;;;;5095842;28;20230;-78
2022/03/30 01:03:20;;;;;;;69.63;36.00;;;5.40;99.90;;;;;;5096458;28;20225;-83
2022/03/30 01:06:09;;;;;;;71.70;36.53;;;5.50;99.90;;;;;;5113957;27;20332;-82
2022/03/30 01:08:59;;;;;;;69.33;36.40;;;5.50;99.90;;;;;;5106580;27;20301;-81
2022/03/30 01:11:48;;;;;;;67.60;36.43;;;5.40;99.90;;;;;;5116102;27;20229;-82
2022/03/30 01:14:37;;;;;;;73.30;36.33;;;5.30;99.90;;;;;;5100780;27;20224;-80
2022/03/30 01:17:26;;;;;;;69.33;37.63;;;5.30;99.90;;;;;;5119089;27;21035;-85
2022/03/30 01:20:18;;;;;;;72.83;36.67;;;5.40;99.90;;;;;;5122576;27;20226;-86
2022/03/30 01:23:08;;;;;;;72.00;36.67;;;5.30;99.90;;;;;;5128147;27;20232;-87
2022/03/30 01:25:57;;;;;;;73.73;37.13;;;5.40;99.90;;;;;;5106013;27;20475;-87
2022/03/30 01:28:46;;;;;;;68.03;36.40;;;5.40;99.90;;;;;;5121467;27;20245;-80
2022/03/30 01:34:41;;;;;;;67.83;35.40;;;5.40;99.90;;;;;;5115037;27;20236;-86
2022/03/30 01:37:32;;;;;;;69.57;35.63;;;5.40;99.90;;;;;;5120447;27;20214;-82
2022/03/30 01:40:22;;;;;;;66.43;35.20;;;5.40;99.90;;;;;;5112048;27;20217;-79
2022/03/30 01:43:11;;;;;;;61.90;34.33;;;5.40;99.90;;;;;;5125542;27;20217;-78
2022/03/30 01:46:00;;;;;;;70.93;36.70;;;5.50;99.90;;;;;;5116900;27;20374;-78
2022/03/30 01:48:49;;;;;;;68.47;36.13;;;5.50;99.90;;;;;;5101585;27;20741;-76
2022/03/30 01:51:38;;;;;;;68.70;36.43;;;5.50;99.90;;;;;;5100338;27;20292;-77
2022/03/30 01:54:28;;;;;;;67.50;36.13;;;5.50;99.90;;;;;;5109341;27;20316;-76
2022/03/30 01:57:18;;;;;;;67.80;36.60;;;5.40;99.90;;;;;;5114624;27;20225;-74
2022/03/30 02:00:10;;;;;;;69.23;35.37;;;5.40;99.90;;;;;;5110267;27;20224;-74
2022/03/30 02:03:02;;;;;;;67.00;36.00;;;5.30;99.90;;;;;;5094944;27;20228;-73
2022/03/30 02:05:52;;;;;;;72.10;37.47;;;5.40;99.90;;;;;;5101897;27;20302;-81
2022/03/30 02:08:42;;;;;;;75.33;36.50;;;5.50;99.90;;;;;;5082519;27;20242;-75
2022/03/30 02:11:31;;;;;;;73.27;36.17;;;5.50;99.90;;;;;;5078390;28;20215;-77
2022/03/30 02:14:21;;;;;;;73.70;36.47;;;5.40;99.90;;;;;;5095984;28;20220;-79
2022/03/30 02:17:10;;;;;;;77.03;38.43;;;5.40;99.90;;;;;;5080791;28;20234;-79
2022/03/30 02:19:59;;;;;;;66.87;36.53;;;5.60;99.90;;;;;;5083710;28;20530;-79
2022/03/30 02:22:48;;;;;;;71.30;36.87;;;5.50;99.90;;;;;;5092356;27;20774;-77
2022/03/30 02:25:37;;;;;;;75.47;37.30;;;5.50;99.90;;;;;;5092097;28;20227;-76
2022/03/30 02:28:26;;;;;;;70.77;37.80;;;5.50;99.90;;;;;;5074681;28;20244;-77
2022/03/30 02:31:16;;;;;;;67.80;36.77;;;5.60;99.90;;;;;;5109702;28;20214;-78
2022/03/30 02:34:04;;;;;;;71.17;35.30;;;5.60;99.90;;;;;;5093901;28;20226;-75
2022/03/30 02:36:53;;;;;;;73.77;36.10;;;5.60;99.90;;;;;;5091640;28;20322;-75
2022/03/30 02:39:42;;;;;;;69.93;37.67;;;5.60;99.90;;;;;;5090370;27;20229;-79
2022/03/30 02:42:31;;;;;;;74.23;37.73;;;5.50;99.90;;;;;;5097773;28;20222;-76
2022/03/30 02:45:21;;;;;;;70.17;36.90;;;5.40;99.90;;;;;;5098403;27;20228;-79
2022/03/30 02:48:21;;;;;;;74.17;38.30;;;5.40;99.90;;;;;;5079751;28;20226;-79
2022/03/30 02:51:10;;;;;;;65.73;35.80;;;5.40;99.90;;;;;;5092686;27;20313;-82
2022/03/30 02:53:58;;;;;;;74.13;37.67;;;5.40;99.90;;;;;;5097106;28;20222;-75
2022/03/30 02:56:47;;;;;;;62.33;34.83;;;5.50;99.90;;;;;;5097292;27;20783;-74
2022/03/30 02:59:36;;;;;;;65.70;37.00;;;5.50;99.90;;;;;;5097304;27;20759;-73
2022/03/30 03:02:25;;;;;;;68.00;36.00;;;5.50;99.90;;;;;;5078377;27;20778;-72
2022/03/30 03:05:15;;;;;;;70.70;38.07;;;5.50;99.90;;;;;;5089082;27;20783;-72
2022/03/30 03:08:06;;;;;;;72.67;36.13;;;5.50;99.90;;;;;;5102344;27;20222;-75
2022/03/30 03:10:56;;;;;;;75.00;35.23;;;5.50;99.90;;;;;;5080405;28;20223;-75
2022/03/30 03:13:45;;;;;;;72.10;36.97;;;5.50;99.90;;;;;;5093436;27;20237;-75
2022/03/30 03:16:34;;;;;;;75.27;36.03;;;5.40;99.90;;;;;;5082291;27;20678;-73
2022/03/30 03:19:23;;;;;;;67.73;34.97;;;5.30;99.90;;;;;;5092520;28;20225;-77
2022/03/30 03:22:13;;;;;;;73.53;37.17;;;5.30;99.90;;;;;;5095461;27;20221;-73
2022/03/30 03:25:02;;;;;;;70.83;37.00;;;5.30;99.90;;;;;;5098114;27;20937;-77
2022/03/30 03:27:53;;;;;;;73.83;37.40;;;5.30;99.90;;;;;;5094589;27;20771;-76
2022/03/30 03:30:43;;;;;;;71.90;38.37;;;5.30;99.90;;;;;;5093625;28;20226;-76
2022/03/30 03:33:32;;;;;;;79.57;37.33;;;5.20;99.90;;;;;;5081504;28;20220;-76
2022/03/30 03:36:21;;;;;;;78.07;40.07;;;5.20;99.90;;;;;;5084900;28;20218;-80
2022/03/30 03:39:11;;;;;;;73.20;38.17;;;5.20;99.90;;;;;;5084515;28;20542;-82
2022/03/30 03:42:00;;;;;;;79.53;38.23;;;5.20;99.90;;;;;;5084922;27;20670;-83
2022/03/30 03:44:48;;;;;;;81.93;39.17;;;5.20;99.90;;;;;;5086943;28;20234;-81
2022/03/30 03:47:37;;;;;;;76.83;39.37;;;5.20;99.90;;;;;;5099168;27;20232;-81
2022/03/30 03:50:27;;;;;;;82.40;40.97;;;5.20;99.90;;;;;;5099071;28;20229;-82
2022/03/30 03:53:15;;;;;;;74.63;38.87;;;5.20;99.90;;;;;;5095416;27;20515;-75
2022/03/30 03:56:06;;;;;;;72.57;38.73;;;5.20;99.90;;;;;;5097175;27;20708;-75
2022/03/30 03:58:55;;;;;;;79.20;39.63;;;5.20;99.90;;;;;;5097685;27;20229;-80
2022/03/30 04:01:44;;;;;;;72.83;38.87;;;5.20;99.90;;;;;;5087654;27;20261;-80
2022/03/30 04:04:33;;;;;;;70.63;38.40;;;5.20;99.90;;;;;;5096409;27;20231;-78
2022/03/30 04:07:21;;;;;;;77.37;40.13;;;5.10;99.90;;;;;;5117672;27;20215;-83
2022/03/30 04:10:11;;;;;;;74.77;38.23;;;5.10;99.90;;;;;;5091283;28;20217;-83
2022/03/30 04:13:02;;;;;;;74.13;38.20;;;5.10;99.90;;;;;;5111328;27;20855;-84
2022/03/30 04:15:51;;;;;;;77.10;39.53;;;5.10;99.90;;;;;;5090362;28;20224;-77
2022/03/30 04:18:41;;;;;;;74.90;40.57;;;5.10;99.90;;;;;;5098382;27;20229;-74
2022/03/30 04:21:30;;;;;;;75.40;39.00;;;5.00;99.90;;;;;;5095469;27;20236;-75
2022/03/30 04:24:18;;;;;;;76.03;38.47;;;5.00;99.90;;;;;;5095701;28;20220;-75
2022/03/30 04:27:07;;;;;;;75.97;37.20;;;5.00;99.90;;;;;;5101446;27;20963;-75
2022/03/30 04:29:57;;;;;;;74.90;37.67;;;5.00;99.90;;;;;;5095958;28;21587;-75
2022/03/30 04:32:47;;;;;;;78.90;37.10;;;5.00;99.90;;;;;;5096869;27;20229;-74
2022/03/30 04:35:35;;;;;;;74.00;36.27;;;5.00;99.90;;;;;;5099331;27;20316;-74
2022/03/30 04:38:24;;;;;;;76.80;36.63;;;4.90;99.90;;;;;;5098033;27;20310;-74
2022/03/30 04:41:13;;;;;;;75.70;37.30;;;4.90;99.90;;;;;;5096571;27;20239;-71
2022/03/30 04:44:02;;;;;;;73.33;37.63;;;4.90;99.90;;;;;;5081502;28;20237;-72
2022/03/30 04:46:52;;;;;;;70.90;36.37;;;4.90;99.90;;;;;;5094511;28;20243;-72
2022/03/30 04:49:41;;;;;;;69.87;36.30;;;4.90;99.90;;;;;;5084346;28;20555;-73
2022/03/30 04:52:31;;;;;;;72.60;35.70;;;4.80;99.90;;;;;;5094026;28;20219;-76
2022/03/30 04:55:21;;;;;;;72.20;36.60;;;4.80;99.90;;;;;;5092953;28;20322;-75
2022/03/30 04:58:10;;;;;;;74.60;36.67;;;4.80;99.90;;;;;;5093476;28;20229;-67
2022/03/30 05:00:59;;;;;;;69.20;35.03;;;4.80;99.90;;;;;;5079152;27;20243;-66
2022/03/30 05:03:52;;;;;;;72.10;36.23;;;4.80;99.90;;;;;;5096010;27;20692;-66
2022/03/30 05:06:41;;;;;;;70.80;37.20;;;4.80;99.90;;;;;;5097342;27;20715;-67
2022/03/30 05:09:29;;;;;;;71.47;33.33;;;4.90;99.90;;;;;;5094261;27;20230;-71
2022/03/30 05:12:18;;;;;;;74.73;37.10;;;4.90;99.90;;;;;;5095871;27;20226;-68
2022/03/30 05:15:09;;;;;;;71.90;36.73;;;4.90;99.90;;;;;;5095437;27;20233;-68
2022/03/30 05:17:58;;;;;;;71.60;36.63;;;4.90;99.90;;;;;;5094574;27;20213;-69
2022/03/30 05:20:48;;;;;;;73.93;38.03;;;4.80;99.90;;;;;;5085101;28;20674;-69
2022/03/30 05:23:37;;;;;;;70.70;37.07;;;4.80;99.90;;;;;;5093171;27;20223;-68
2022/03/30 05:26:26;;;;;;;76.37;37.77;;;4.90;99.90;;;;;;5087323;27;20211;-70
2022/03/30 05:29:15;;;;;;;70.70;37.20;;;5.00;99.90;;;;;;5086404;27;20221;-68
2022/03/30 05:32:04;;;;;;;72.83;37.87;;;5.10;99.90;;;;;;5096254;27;20246;-70
2022/03/30 05:35:02;;;;;;;78.97;38.43;;;5.10;99.90;;;;;;5099640;28;20281;-69
2022/03/30 05:37:52;;;;;;;71.20;37.37;;;5.10;99.90;;;;;;5082781;28;20238;-74
2022/03/30 05:40:42;;;;;;;80.17;38.70;;;5.10;99.90;;;;;;5101662;27;20223;-71
2022/03/30 05:43:31;;;;;;;77.17;38.93;;;5.30;99.90;;;;;;5091747;27;20218;-66
2022/03/30 05:46:20;;;;;;;74.17;38.63;;;5.20;99.90;;;;;;5081358;27;20696;-66
2022/03/30 05:49:12;;;;;;;74.13;38.23;;;5.20;99.90;;;;;;5079272;27;20222;-66
2022/03/30 05:52:01;;;;;;;75.43;39.53;;;5.30;99.90;;;;;;5079428;27;20778;-66
2022/03/30 05:54:51;;;;;;;71.37;38.17;;;5.30;99.90;;;;;;5093257;28;20657;-69
2022/03/30 05:57:40;;;;;;;76.93;39.57;;;5.40;99.90;;;;;;5094582;28;20226;-70
2022/03/30 06:00:29;;;;;;;70.77;37.13;;;5.40;99.90;;;;;;5096625;27;20310;-67
2022/03/30 06:03:18;;;;;;;72.37;38.10;;;5.40;99.90;;;;;;5080575;27;20233;-68
2022/03/30 06:06:07;;;;;;;80.77;38.87;;;5.50;99.90;;;;;;5083792;28;20222;-68
2022/03/30 06:08:56;;;;;;;85.43;39.50;;;5.60;99.90;;;;;;5095277;27;20313;-68
2022/03/30 06:11:47;;;;;;;78.13;38.60;;;5.60;99.90;;;;;;5083270;28;20653;-66
2022/03/30 06:14:36;;;;;;;76.33;39.10;;;5.60;99.90;;;;;;5092904;27;20670;-67
2022/03/30 06:17:25;;;;;;;75.03;38.03;;;5.90;99.90;;;;;;5081255;28;20219;-66
2022/03/30 06:20:14;;;;;;;104.43;40.63;;;6.00;99.90;;;;;;5094726;28;20215;-67
2022/03/30 06:23:10;;;;;;;85.27;38.23;;;6.10;99.90;;;;;;5097474;28;20301;-68
2022/03/30 06:26:01;;;;;;;73.87;37.90;;;6.20;99.90;;;;;;5097952;27;20230;-72
2022/03/30 06:28:51;;;;;;;79.23;36.20;;;6.30;99.90;;;;;;5096685;28;20305;-71
2022/03/30 06:31:44;;;;;;;73.30;36.10;;;6.40;99.90;;;;;;5076835;28;20234;-69
2022/03/30 06:34:33;;;;;;;69.33;33.97;;;6.60;99.90;;;;;;5099552;27;20317;-74
2022/03/30 06:37:21;;;;;;;63.50;33.57;;;6.70;99.90;;;;;;5087245;28;20211;-78
2022/03/30 06:40:11;;;;;;;68.97;33.43;;;6.60;99.90;;;;;;5083100;28;20232;-77
2022/03/30 06:43:00;;;;;;;70.50;31.90;;;6.70;99.90;;;;;;5081584;28;20224;-77
2022/03/30 06:45:50;;;;;;;59.93;30.50;;;6.80;99.90;;;;;;5085330;28;20232;-69
2022/03/30 06:48:39;;;;;;;61.10;31.93;;;7.00;99.90;;;;;;5076593;28;20223;-69
2022/03/30 06:51:27;;;;;;;66.77;32.10;;;7.10;99.90;;;;;;5082955;28;20227;-75
2022/03/30 06:54:16;;;;;;;58.40;30.83;;;7.20;99.90;;;;;;5096856;27;20210;-75
2022/03/30 06:57:06;;;;;;;56.63;30.13;;;7.20;99.90;;;;;;5084940;28;20450;-71
2022/03/30 06:59:55;;;;;;;60.93;29.97;;;7.20;99.90;;;;;;5098604;28;20440;-72
2022/03/30 07:02:45;;;;;;;54.77;29.73;;;7.30;99.90;;;;;;5091832;28;20226;-72
2022/03/30 07:05:34;;;;;;;53.23;28.90;;;7.50;99.90;;;;;;5080761;27;20234;-74
2022/03/30 07:11:29;;;;;;;59.93;28.60;;;7.70;99.90;;;;;;5101223;28;20229;-77
2022/03/30 07:14:18;;;;;;;53.17;29.73;;;7.80;99.90;;;;;;5109774;27;20250;-77
2022/03/30 07:17:07;;;;;;;57.70;27.80;;;7.90;99.90;;;;;;5109396;27;20703;-76
2022/03/30 07:19:57;;;;;;;50.10;26.87;;;8.00;99.90;;;;;;5096125;28;20295;-75
2022/03/30 07:22:47;;;;;;;54.63;28.17;;;8.10;99.90;;;;;;5093894;28;20217;-75
2022/03/30 07:25:36;;;;;;;52.00;26.50;;;8.30;99.90;;;;;;5085766;27;20222;-72
2022/03/30 07:28:29;;;;;;;51.03;27.07;;;8.50;99.90;;;;;;5088227;28;20248;-78
2022/03/30 07:31:18;;;;;;;48.23;24.63;;;8.70;99.90;;;;;;5099084;27;20265;-71
2022/03/30 07:34:07;;;;;;;49.47;24.47;;;8.90;99.90;;;;;;5102368;27;20230;-73
2022/03/30 07:36:58;;;;;;;50.03;26.23;;;9.20;99.90;;;;;;5102643;27;20225;-72
2022/03/30 07:39:47;;;;;;;48.08;24.60;;;11.10;99.90;;;;;;5084662;28;20299;-72
2022/03/30 07:42:36;;;;;;;46.70;24.40;;;12.70;99.90;;;;;;5093592;27;20230;-72
2022/03/30 07:45:26;;;;;;;46.42;23.40;;;13.70;99.90;;;;;;5088345;28;20230;-78
2022/03/30 07:48:15;;;;;;;38.97;22.15;;;13.90;99.90;;;;;;5112725;27;20248;-70
2022/03/30 07:51:04;;;;;;;45.92;23.75;;;14.20;99.90;;;;;;5097592;28;20227;-73
2022/03/30 07:53:54;;;;;;;44.55;23.80;;;14.20;99.70;;;;;;5109350;27;20223;-75
2022/03/30 07:56:43;;;;;;;38.45;22.33;;;14.40;98.40;;;;;;5104587;27;20225;-81
2022/03/30 07:59:32;;;;;;;39.08;22.17;;;15.50;94.70;;;;;;5103158;27;20296;-81
2022/03/30 08:02:21;;;;;;;37.50;21.02;;;15.40;93.20;;;;;;5085234;28;20283;-80
2022/03/30 08:05:12;;;;;;;41.60;22.50;;;16.10;90.40;;;;;;5106314;27;20340;-79
2022/03/30 08:08:02;;;;;;;37.40;20.60;;;16.60;87.90;;;;;;5117904;27;20231;-79
2022/03/30 08:10:53;;;;;;;35.80;20.33;;;16.50;84.30;;;;;;5108650;27;20222;-77
2022/03/30 08:13:42;;;;;;;32.28;18.83;;;17.30;81.20;;;;;;5119032;27;20257;-73
2022/03/30 08:16:32;;;;;;;34.50;17.77;;;17.80;76.00;;;;;;5105004;27;20258;-73
2022/03/30 08:19:21;;;;;;;28.42;15.18;;;18.00;73.00;;;;;;5118667;27;21102;-75
2022/03/30 08:22:29;;;;;;;25.05;12.30;;;18.70;67.80;;;;;;5116804;27;20600;-76
2022/03/30 08:25:17;;;;;;;25.95;11.95;;;18.20;65.70;;;;;;5119249;27;20224;-79
2022/03/30 08:28:08;;;;;;;22.75;11.32;;;17.40;67.90;;;;;;5120032;27;20214;-78
2022/03/30 08:30:58;;;;;;;21.40;11.60;;;18.40;65.70;;;;;;5102162;27;20351;-76
2022/03/30 08:33:47;;;;;;;22.50;12.07;;;20.30;61.50;;;;;;5122549;27;20238;-70
2022/03/30 08:36:36;;;;;;;24.52;11.85;;;20.40;59.40;;;;;;5102443;27;20633;-75
2022/03/30 08:39:24;;;;;;;23.75;11.02;;;20.80;58.00;;;;;;5116397;27;20903;-75
2022/03/30 08:42:15;;;;;;;21.17;10.60;;;21.40;56.40;;;;;;5113623;27;20340;-74
2022/03/30 08:45:07;;;;;;;20.80;10.73;;;22.00;54.70;;;;;;5119945;27;20234;-69
2022/03/30 08:47:56;;;;;;;19.50;9.65;;;21.10;54.30;;;;;;5102359;27;20241;-70
2022/03/30 08:50:45;;;;;;;19.90;9.73;;;20.20;55.70;;;;;;5110454;27;20222;-72
2022/03/30 08:53:34;;;;;;;18.00;8.32;;;20.00;56.70;;;;;;5116047;27;20229;-70
2022/03/30 08:56:24;;;;;;;18.27;7.57;;;18.80;58.00;;;;;;5104519;27;20571;-71
2022/03/30 08:59:17;;;;;;;22.77;9.13;;;20.50;54.80;;;;;;5099449;27;20226;-71
2022/03/30 09:02:09;;;;;;;19.20;8.85;;;17.70;55.50;;;;;;5100798;27;20445;-71
2022/03/30 09:05:14;;;;;;;18.55;8.60;;;19.50;56.00;;;;;;5114075;27;20254;-72
2022/03/30 09:08:12;;;;;;;17.98;7.68;;;16.40;58.90;;;;;;5099518;27;20214;-71
2022/03/30 09:11:04;;;;;;;15.43;7.38;;;14.90;63.20;;;;;;5095127;27;20215;-73
2022/03/30 09:14:01;;;;;;;19.38;7.65;;;14.90;63.40;;;;;;5116093;27;20234;-71
2022/03/30 09:16:52;;;;;;;18.50;7.90;;;13.80;65.80;;;;;;5116021;27;20222;-72
2022/03/30 09:19:42;;;;;;;13.52;7.57;;;13.50;66.60;;;;;;5112117;27;20218;-73
2022/03/30 09:22:33;;;;;;;17.58;7.15;;;13.10;68.10;;;;;;5113692;27;20229;-73
2022/03/30 09:25:24;;;;;;;16.83;7.38;;;12.60;68.50;;;;;;5111978;27;20522;-72
2022/03/30 09:28:15;;;;;;;16.33;7.78;;;12.30;70.70;;;;;;5117124;27;20214;-72
2022/03/30 09:31:04;;;;;;;19.90;8.70;;;12.00;71.20;;;;;;5115535;27;20226;-71
2022/03/30 09:33:54;;;;;;;23.15;8.23;;;12.30;71.90;;;;;;5114356;27;20222;-71
2022/03/30 09:36:45;;;;;;;17.95;7.45;;;12.40;71.00;;;;;;5100938;27;20813;-71
2022/03/30 09:39:38;;;;;;;12.95;7.10;;;12.90;70.30;;;;;;5112301;27;20214;-71
2022/03/30 09:42:29;;;;;;;15.68;6.65;;;12.70;70.50;;;;;;5102259;27;20271;-71
2022/03/30 09:45:29;;;;;;;21.83;7.63;;;12.60;70.10;;;;;;5116070;27;20230;-71
2022/03/30 09:48:24;;;;;;;19.10;8.23;;;12.60;70.80;;;;;;5115902;27;20314;-71
2022/03/30 09:51:14;;;;;;;16.92;7.88;;;12.50;71.30;;;;;;5114080;27;20218;-71
2022/03/30 09:54:07;;;;;;;18.05;7.07;;;12.20;71.40;;;;;;5103287;27;20229;-71
2022/03/30 09:56:56;;;;;;;22.15;7.68;;;11.80;72.20;;;;;;5099496;27;20213;-71
2022/03/30 10:00:04;;;;;;;16.88;7.78;;;11.70;72.80;;;;;;5099661;27;20225;-72
2022/03/30 10:02:56;;;;;;;16.88;7.80;;;11.80;73.20;;;;;;5116005;27;20302;-72
2022/03/30 10:05:45;;;;;;;18.50;6.72;;;11.40;73.90;;;;;;5099770;27;20237;-72
2022/03/30 10:08:34;;;;;;;17.95;6.82;;;11.60;73.60;;;;;;5101248;27;20237;-71
2022/03/30 10:11:26;;;;;;;13.32;6.18;;;11.80;72.60;;;;;;5114865;27;20223;-70
2022/03/30 10:14:15;;;;;;;17.23;7.40;;;11.90;72.60;;;;;;5111958;27;20226;-71
2022/03/30 10:17:04;;;;;;;16.45;6.82;;;12.00;72.60;;;;;;5114619;27;20250;-71
2022/03/30 10:19:56;;;;;;;13.70;7.13;;;11.80;72.70;;;;;;5116266;27;20652;-70
2022/03/30 10:23:09;;;;;;;15.63;7.32;;;12.30;72.10;;;;;;5117335;27;20271;-71
2022/03/30 10:26:11;;;;;;;15.30;6.32;;;12.30;71.70;;;;;;5113906;27;20221;-71
2022/03/30 10:29:06;;;;;;;17.25;6.55;;;11.80;72.00;;;;;;5105638;28;20226;-72
2022/03/30 10:32:17;;;;;;;18.17;6.55;;;11.80;72.00;;;;;;5100611;28;20625;-72
2022/03/30 10:35:09;;;;;;;14.43;6.05;;;11.90;70.80;;;;;;5112502;27;20305;-72
2022/03/30 10:37:59;;;;;;;14.23;6.07;;;11.80;70.30;;;;;;5098377;27;20222;-70
2022/03/30 10:41:06;;;;;;;14.30;6.57;;;11.50;70.30;;;;;;5112569;27;20732;-71
2022/03/30 10:43:55;;;;;;;13.57;6.63;;;11.60;70.50;;;;;;5114289;27;20221;-72
2022/03/30 10:47:11;;;;;;;14.77;6.20;;;11.40;70.10;;;;;;5113519;27;20262;-71
2022/03/30 10:50:02;;;;;;;12.07;6.82;;;11.50;69.80;;;;;;5098978;27;20267;-70
2022/03/30 10:52:51;;;;;;;13.77;6.30;;;11.70;69.30;;;;;;5098881;27;20234;-71
2022/03/30 10:55:41;;;;;;;14.30;6.50;;;11.90;67.20;;;;;;5113032;27;20293;-71
2022/03/30 10:58:29;;;;;;;16.88;6.45;;;12.00;67.10;;;;;;5117768;27;20222;-70
2022/03/30 11:01:21;;;;;;;14.95;6.18;;;12.10;67.10;;;;;;5107043;27;20696;-70
2022/03/30 11:04:22;;;;;;;14.05;5.85;;;12.00;68.30;;;;;;5116037;27;20492;-70
2022/03/30 11:07:34;;;;;;;11.50;5.82;;;12.50;67.00;;;;;;5115297;27;20653;-70
2022/03/30 11:10:25;;;;;;;13.50;6.80;;;12.80;66.80;;;;;;5103567;27;20248;-70
2022/03/30 11:13:23;;;;;;;12.68;6.68;;;12.90;67.10;;;;;;5104053;27;20222;-70
2022/03/30 11:16:15;;;;;;;14.98;6.82;;;12.50;68.00;;;;;;5114947;27;20290;-70
2022/03/30 11:19:05;;;;;;;40.70;8.57;;;12.60;68.30;;;;;;5116459;27;20217;-70
2022/03/30 11:22:07;;;;;;;21.48;7.20;;;12.40;68.70;;;;;;5113926;27;20956;-72
2022/03/30 11:25:07;;;;;;;21.48;8.10;;;12.50;68.90;;;;;;5120152;27;20404;-71
2022/03/30 11:28:15;;;;;;;19.13;7.43;;;12.30;69.80;;;;;;5119767;27;20705;-71
2022/03/30 11:31:05;;;;;;;20.42;7.38;;;12.10;70.80;;;;;;5101637;27;21005;-72
2022/03/30 11:34:32;;;;;;;16.83;7.30;;;12.10;71.20;;;;;;5120286;27;20218;-71
2022/03/30 11:37:28;;;;;;;18.50;7.70;;;12.10;71.20;;;;;;5114567;27;20214;-71
2022/03/30 11:40:19;;;;;;;19.73;7.75;;;12.20;70.70;;;;;;5119990;27;20209;-71
2022/03/30 11:43:10;;;;;;;10.95;6.63;;;12.30;70.40;;;;;;5116172;27;20227;-71
2022/03/30 11:46:25;;;;;;;13.73;7.10;;;12.00;70.80;;;;;;5116255;27;20210;-71
2022/03/30 11:49:15;;;;;;;17.63;7.40;;;12.20;70.40;;;;;;5112481;27;20237;-71
2022/03/30 11:52:15;;;;;;;17.88;6.32;;;12.60;69.60;;;;;;5116971;27;20225;-70
2022/03/30 11:55:08;;;;;;;14.93;6.03;;;12.50;69.40;;;;;;5117241;27;20222;-70
2022/03/30 11:57:59;;;;;;;15.40;6.43;;;12.90;68.50;;;;;;5116779;27;21149;-70
2022/03/30 12:00:48;;;;;;;13.35;6.05;;;12.70;67.60;;;;;;5117306;27;20222;-70
2022/03/30 12:03:38;;;;;;;12.55;6.03;;;12.30;68.50;;;;;;5118469;27;20533;-70
2022/03/30 12:06:28;;;;;;;14.73;5.45;;;12.30;68.70;;;;;;5117790;27;20222;-70
2022/03/30 12:09:17;;;;;;;11.45;5.50;;;12.20;68.70;;;;;;5117197;27;20671;-70
2022/03/30 12:12:11;;;;;;;14.70;6.20;;;12.10;68.60;;;;;;5122614;27;20744;-70
2022/03/30 12:15:01;;;;;;;13.50;6.00;;;12.00;68.90;;;;;;5100481;27;20226;-71
2022/03/30 12:17:52;;;;;;;15.40;5.95;;;12.10;69.00;;;;;;5118708;27;20240;-70
2022/03/30 12:20:40;;;;;;;15.38;6.65;;;12.10;69.30;;;;;;5118894;27;20524;-70
2022/03/30 12:23:30;;;;;;;15.38;6.47;;;12.00;69.50;;;;;;5117560;27;20214;-70
2022/03/30 12:26:19;;;;;;;13.25;5.72;;;12.10;69.10;;;;;;5111960;27;20229;-70
2022/03/30 12:29:10;;;;;;;50.67;8.32;;;12.20;68.90;;;;;;5111435;27;20223;-69
2022/03/30 12:31:59;;;;;;;15.05;6.07;;;12.00;69.50;;;;;;5114981;27;20237;-70
2022/03/30 12:34:49;;;;;;;13.88;6.25;;;12.20;69.30;;;;;;5112623;27;20295;-71
2022/03/30 12:37:38;;;;;;;14.75;5.85;;;12.30;68.10;;;;;;5106591;27;20271;-72
2022/03/30 12:40:34;;;;;;;26.15;10.82;;;12.50;68.10;;;;;;5116247;27;20218;-70
2022/03/30 12:43:28;;;;;;;12.00;6.68;;;12.20;69.00;;;;;;5119329;27;20681;-70
2022/03/30 12:46:19;;;;;;;13.65;6.72;;;11.90;68.90;;;;;;5097862;27;20218;-70
2022/03/30 12:49:10;;;;;;;18.02;6.35;;;11.90;69.40;;;;;;5112893;27;20221;-70
2022/03/30 12:52:06;;;;;;;14.65;5.90;;;12.00;69.60;;;;;;5115447;27;20225;-70
2022/03/30 12:55:13;;;;;;;11.20;5.85;;;11.80;70.00;;;;;;5114179;27;20685;-67
2022/03/30 12:58:07;;;;;;;15.00;5.65;;;11.60;69.40;;;;;;5117975;27;20210;-71
2022/03/30 13:00:57;;;;;;;17.08;5.57;;;11.70;69.10;;;;;;5114807;27;20226;-71
2022/03/30 13:03:47;;;;;;;18.77;6.03;;;11.80;68.60;;;;;;5116066;27;20238;-70
2022/03/30 13:06:36;;;;;;;15.57;5.70;;;12.00;68.00;;;;;;5106266;27;20709;-70
2022/03/30 13:09:28;;;;;;;15.25;5.88;;;11.90;67.60;;;;;;5110472;27;20676;-71
2022/03/30 13:12:17;;;;;;;11.68;5.20;;;11.90;67.40;;;;;;5101060;27;20370;-70
2022/03/30 13:15:06;;;;;;;13.20;5.75;;;12.00;67.60;;;;;;5115937;27;20738;-70
2022/03/30 13:18:01;;;;;;;14.48;5.60;;;11.80;67.80;;;;;;5114595;27;20462;-69
2022/03/30 13:20:57;;;;;;;13.38;5.20;;;11.70;68.00;;;;;;5100816;27;20229;-72
2022/03/30 13:23:49;;;;;;;11.95;5.43;;;11.90;68.60;;;;;;5104063;27;20965;-71
2022/03/30 13:26:40;;;;;;;11.85;5.20;;;11.70;67.70;;;;;;5113232;27;20339;-70
2022/03/30 13:29:29;;;;;;;13.93;6.07;;;11.70;68.10;;;;;;5110406;27;20221;-70
2022/03/30 13:32:18;;;;;;;13.82;5.50;;;11.70;67.70;;;;;;5100128;27;20244;-70
2022/03/30 13:35:08;;;;;;;11.40;5.10;;;11.80;67.60;;;;;;5096171;27;20219;-70
2022/03/30 13:37:59;;;;;;;18.33;5.80;;;11.70;68.10;;;;;;5113016;27;20412;-80
2022/03/30 13:40:48;;;;;;;14.70;5.68;;;11.70;68.20;;;;;;5113820;27;20229;-72
2022/03/30 13:43:37;;;;;;;16.35;6.20;;;11.40;68.40;;;;;;5117696;27;20226;-79
2022/03/30 13:46:26;;;;;;;20.33;6.30;;;11.50;68.60;;;;;;5100570;27;20558;-70
2022/03/30 13:49:16;;;;;;;13.20;5.63;;;11.40;68.80;;;;;;5099056;27;20239;-71
2022/03/30 13:52:13;;;;;;;11.38;5.38;;;11.30;69.40;;;;;;5098191;27;20214;-71
2022/03/30 13:55:04;;;;;;;11.00;5.45;;;11.30;69.00;;;;;;5100998;27;20585;-71
2022/03/30 13:57:53;;;;;;;11.07;5.25;;;11.50;67.80;;;;;;5111993;27;20274;-71
2022/03/30 14:00:43;;;;;;;13.32;5.60;;;11.60;67.20;;;;;;5111822;27;20225;-72
2022/03/30 14:03:32;;;;;;;13.40;5.05;;;11.70;67.40;;;;;;5100926;27;20237;-71
2022/03/30 14:06:21;;;;;;;10.60;5.25;;;11.80;67.00;;;;;;5089612;28;20219;-70
2022/03/30 14:09:10;;;;;;;10.07;5.60;;;11.70;67.70;;;;;;5097956;27;20226;-70
2022/03/30 14:12:01;;;;;;;13.82;5.57;;;11.70;67.00;;;;;;5101259;27;20223;-71
2022/03/30 14:14:50;;;;;;;12.35;5.38;;;11.50;67.90;;;;;;5091816;28;20224;-72
2022/03/30 14:17:39;;;;;;;10.50;5.18;;;11.50;67.60;;;;;;5108849;27;20259;-73
2022/03/30 14:20:28;;;;;;;14.80;5.30;;;11.50;67.80;;;;;;5098590;27;20321;-70
2022/03/30 14:23:17;;;;;;;14.82;5.40;;;11.70;67.70;;;;;;5097818;27;20769;-72
2022/03/30 14:26:06;;;;;;;11.70;4.82;;;11.60;67.60;;;;;;5114026;27;20241;-69
2022/03/30 14:28:57;;;;;;;14.30;5.57;;;11.60;67.60;;;;;;5115656;27;20271;-69
2022/03/30 14:31:46;;;;;;;13.18;5.63;;;11.60;67.70;;;;;;5111158;27;20240;-70
2022/03/30 14:34:35;;;;;;;15.20;5.38;;;11.60;67.60;;;;;;5102292;28;20244;-71
2022/03/30 14:37:25;;;;;;;13.02;5.38;;;11.50;67.90;;;;;;5098763;28;20590;-71
2022/03/30 14:40:14;;;;;;;11.93;5.30;;;11.50;68.40;;;;;;5112422;27;20214;-71
2022/03/30 14:43:03;;;;;;;12.18;5.20;;;11.30;68.20;;;;;;5114311;28;20229;-70